Airfield :
LOGIN :

Register | Disclaimer

   EN    FR    IT 

 










Legend :    VFR   Marginal VFR   IFR   Intensive IFR   Very Intensive IFR
Visi :
Ceiling :
>= 8 km
>= 3000ft
5 to 8 km
1000 to 3000 ft
1500m to 5 km
500 to 1000 ft
800 to 1500m
200 to 500 ft
< 800m
< 200 ft
Symbols :   Thunderstorms  Fog  Heavy snow  Heavy precipitations  Wind > 20 kt
SIGMETs :     Misc.  Thunderstorms  Icing  Turbulence  Mountain Waves  Volcanic Ashes






- Airport Elevation : 424 ft
- IATA code : QGY


LHPR - Györ Per

CURRENT METAR :
  • 021315Z AUTO 11005KT 3000 -RASN OVC034 01/00 Q1022 NOSIG

EXPIRED METARs :
  • 021245Z AUTO 10005KT 2700 -RASN BR OVC041 01/00 Q1022 NOSIG
  • 021215Z AUTO 09005KT 1800 -RASN BR FEW003 OVC020 01/00 Q1022 NOSIG
  • 021145Z AUTO 09005KT 1700 -SN OVC019 01/00 Q1022 NOSIG
  • 021115Z AUTO 10004KT 1800 -SN OVC014 00/00 Q1023 NOSIG
  • 021045Z AUTO 09003KT 1300 R29/P1500 -SN FEW004 OVC015 00/00 Q1023 NOSIG

TAF TAF LHPR
Valid from the 02 at 12:00 until the 02 at 21:00 UTC


021115Z 0212/0221 10004KT 6000 SCT015 OVC020
TEMPO 0212/0219 2000 -RASN -SN BKN005 OVC020
PROB40
TEMPO 0212/0216 0800 SN OVC004



MET'MAP, your aeronautical weather chart ! - Copyright ORBIFLY December 2007 - Disclaimer

ORBIFLY MET'MAP TEAM :

Programming & Development : Alexandra Zaïnal
Original concept : Baudouin d'Aumeries
Technical & hardware support : Manuel Goepfert
Assistance : Marc-Olivier Méhu




SOURCES & CREDITS :

   NOAA